Summer Hill, Illinois
Current Conditions -  °F | °C
As of 9:55 AM on Sunday 21 Dec 2014 (Local Time) from KPPQ Reporting Station
Overcast Overcast  
Wind Chill: 32°   Ceiling: 2700
Heat Index: 40°   Visibility: 7mi
Dew Point: 35°   Wind: 13mph
Humidity: 85%   Direction: 150°SSE
Pressure: 30.16"   Gusts: NA
Location:  39.5728°N, 90.8034°W
Report Text: KPPQ 211555Z AUTO 15011KT 7SM OVC027 04/02 A3016 RMK AO2 T00420018
Loading
Personal Weather Stations






























Interactive Weather Map New forecast layout! Learn more

10-Day Weather Forecast

Advertisements
Track Severe Weather on mobile